Terminal Aerodrome Forecast
Issued by NWS

Home | Current Version | Previous Version | Text Only | Print | Product List | Glossary On
Versions: 1 2 3 4 5 6 7 8 9 10 11 12 13 14 15 16 17 18 19 20 21 22 23
615
FTUS46 KPDT 160533
TAFBDN
TAF
KBDN 160533Z 1606/1706 VRB03KT 1SM BR OVC001
      TEMPO 1606/1609 1/4SM FG OVC001
     FM160900 15003KT 1SM -SHRA BR SCT002 BKN035 OVC050
     FM161400 17005KT P6SM SCT040
     FM162200 32005KT P6SM FEW040 BKN070=

USA.gov is the U.S. government's official web portal to all federal, state and local government web resources and services.